createdAt,value
2023-05-13T00:02:03.472Z,26.20
2023-05-13T00:04:30.029Z,25.30
2023-05-13T00:06:56.546Z,25.67
2023-05-13T00:09:23.082Z,27.23
2023-05-13T00:11:49.670Z,28.03
2023-05-13T00:14:16.415Z,27.93
2023-05-13T00:16:43.305Z,27.63
2023-05-13T00:19:10.017Z,27.07
2023-05-13T00:21:36.608Z,30.30
2023-05-13T00:24:03.212Z,27.47
2023-05-13T00:26:29.804Z,35.90
2023-05-13T00:28:56.289Z,28.33
2023-05-13T00:31:23.696Z,27.10
2023-05-13T00:33:50.276Z,25.67
2023-05-13T00:36:17.321Z,30.37
2023-05-13T00:38:44.104Z,28.27
2023-05-13T00:41:12.083Z,28.97
2023-05-13T00:43:38.611Z,27.57
2023-05-13T00:46:05.304Z,27.07
2023-05-13T00:48:33.216Z,27.63
2023-05-13T00:50:59.876Z,28.87
2023-05-13T00:53:26.388Z,29.10
2023-05-13T00:55:52.920Z,26.47
2023-05-13T00:58:19.476Z,33.23
2023-05-13T01:01:17.625Z,32.13
2023-05-13T01:03:55.780Z,33.03
2023-05-13T01:06:33.202Z,37.97
2023-05-13T01:09:20.099Z,36.70
2023-05-13T01:11:50.486Z,33.50
2023-05-13T01:14:24.931Z,38.17
2023-05-13T01:17:14.669Z,40.27
2023-05-13T01:19:52.477Z,36.97
2023-05-13T01:22:19.002Z,37.47
2023-05-13T01:24:45.952Z,40.93
2023-05-13T01:27:12.931Z,39.27
2023-05-13T01:29:40.820Z,41.17
2023-05-13T01:32:09.294Z,46.23
2023-05-13T01:34:36.628Z,40.13
2023-05-13T01:37:03.259Z,41.10
2023-05-13T01:39:31.678Z,38.10
2023-05-13T01:41:58.666Z,44.97
2023-05-13T01:44:25.240Z,40.73
2023-05-13T01:46:53.284Z,39.23
2023-05-13T01:49:19.918Z,43.37
2023-05-13T01:51:46.483Z,44.63
2023-05-13T01:54:13.120Z,43.87
2023-05-13T01:56:39.640Z,39.67
2023-05-13T01:59:06.261Z,42.33
2023-05-13T02:01:32.842Z,42.13
2023-05-13T02:04:00.045Z,48.73
2023-05-13T02:06:27.803Z,43.87
2023-05-13T02:08:54.714Z,41.00
2023-05-13T02:11:22.431Z,47.33
2023-05-13T02:13:49.017Z,45.13
2023-05-13T02:16:17.837Z,44.33
2023-05-13T02:18:44.479Z,40.47
2023-05-13T02:21:11.106Z,45.30
2023-05-13T02:23:37.630Z,46.47
2023-05-13T02:26:04.169Z,44.40
2023-05-13T02:28:30.744Z,51.33
2023-05-13T02:30:57.363Z,53.73
2023-05-13T02:33:23.884Z,44.53
2023-05-13T02:35:50.408Z,48.50
2023-05-13T02:38:16.956Z,50.83
2023-05-13T02:40:44.113Z,52.00
2023-05-13T02:43:10.654Z,51.33
2023-05-13T02:45:39.834Z,54.80
2023-05-13T02:48:06.484Z,51.87
2023-05-13T02:50:33.221Z,58.10
2023-05-13T02:52:59.791Z,56.67
2023-05-13T02:55:26.440Z,49.27
2023-05-13T02:57:52.973Z,55.97
2023-05-13T03:00:19.832Z,53.33
2023-05-13T03:02:46.682Z,57.60
2023-05-13T03:05:13.560Z,55.40
2023-05-13T03:07:40.190Z,56.37
2023-05-13T03:10:07.218Z,60.07
2023-05-13T03:12:33.760Z,53.83
2023-05-13T03:15:00.430Z,56.30
2023-05-13T03:17:30.622Z,56.57
2023-05-13T03:19:57.407Z,59.47
2023-05-13T03:22:23.934Z,60.20
2023-05-13T03:24:50.455Z,55.00
2023-05-13T03:27:17.152Z,61.03
2023-05-13T03:29:43.825Z,62.40
2023-05-13T03:32:10.444Z,60.00
2023-05-13T03:34:37.735Z,57.07
2023-05-13T03:37:05.093Z,60.27
2023-05-13T03:39:31.620Z,61.67
2023-05-13T03:41:58.177Z,57.27
2023-05-13T03:44:24.696Z,60.53
2023-05-13T03:46:51.300Z,57.40
2023-05-13T03:49:18.917Z,63.40
2023-05-13T03:51:45.454Z,55.97
2023-05-13T03:54:12.042Z,58.07
2023-05-13T03:56:38.586Z,58.07
2023-05-13T03:59:05.199Z,66.23
2023-05-13T04:01:31.699Z,63.50
2023-05-13T04:03:58.187Z,59.70
2023-05-13T04:06:24.756Z,56.20
2023-05-13T04:08:51.695Z,58.23
2023-05-13T04:11:18.486Z,55.83
2023-05-13T04:13:45.831Z,62.07
2023-05-13T04:16:12.392Z,55.47
2023-05-13T04:18:39.025Z,58.40
2023-05-13T04:21:07.186Z,60.67
2023-05-13T04:23:33.746Z,56.10
2023-05-13T04:26:00.344Z,58.53
2023-05-13T04:28:26.967Z,62.37
2023-05-13T04:30:54.215Z,55.03
2023-05-13T04:33:20.929Z,62.17
2023-05-13T04:35:47.438Z,55.33
2023-05-13T04:38:14.237Z,63.00
2023-05-13T04:40:40.761Z,57.40
2023-05-13T04:43:07.460Z,60.70
2023-05-13T04:45:34.057Z,61.70
2023-05-13T04:48:00.665Z,63.37
2023-05-13T04:50:27.228Z,61.07
2023-05-13T04:52:54.731Z,60.90
2023-05-13T04:55:21.725Z,54.87
2023-05-13T04:57:48.798Z,56.10
2023-05-13T05:00:16.003Z,61.03
2023-05-13T05:02:42.561Z,60.13
2023-05-13T05:05:09.508Z,56.97
2023-05-13T05:07:40.087Z,56.47
2023-05-13T05:10:08.437Z,54.93
2023-05-13T05:12:35.232Z,52.77
2023-05-13T05:15:01.747Z,57.90
2023-05-13T05:17:32.375Z,59.00
2023-05-13T05:19:59.624Z,51.03
2023-05-13T05:22:26.712Z,56.20
2023-05-13T05:24:53.431Z,53.27
2023-05-13T05:27:20.133Z,56.50
2023-05-13T05:29:46.718Z,48.67
2023-05-13T05:32:13.321Z,54.03
2023-05-13T05:34:39.995Z,47.43
2023-05-13T05:37:06.502Z,52.23
2023-05-13T05:39:33.264Z,44.73
2023-05-13T05:41:59.763Z,50.57
2023-05-13T05:44:26.266Z,47.30
2023-05-13T05:46:53.607Z,48.20
2023-05-13T05:49:20.142Z,46.37
2023-05-13T05:51:46.679Z,43.07
2023-05-13T05:54:13.192Z,41.87
2023-05-13T05:56:39.746Z,42.87
2023-05-13T05:59:06.267Z,40.07
2023-05-13T06:01:34.568Z,42.77
2023-05-13T06:04:01.156Z,41.67
2023-05-13T06:06:27.753Z,44.00
2023-05-13T06:08:54.267Z,39.03
2023-05-13T06:11:21.425Z,31.67
2023-05-13T06:13:47.951Z,32.53
2023-05-13T06:16:14.747Z,31.20
2023-05-13T06:18:41.486Z,28.83
2023-05-13T06:21:08.555Z,27.27
2023-05-13T06:23:35.207Z,28.03
2023-05-13T06:26:01.724Z,24.67
2023-05-13T06:28:28.360Z,23.37
2023-05-13T06:30:55.208Z,22.20
2023-05-13T06:33:21.881Z,21.60
2023-05-13T06:35:49.555Z,20.90
2023-05-13T06:38:19.415Z,18.50
2023-05-13T06:40:46.121Z,21.03
2023-05-13T06:43:14.529Z,20.97
2023-05-13T06:45:41.242Z,15.37
2023-05-13T06:48:08.105Z,19.57
2023-05-13T06:50:34.705Z,13.63
2023-05-13T06:53:01.264Z,12.40
2023-05-13T06:55:27.882Z,13.17
2023-05-13T06:57:54.407Z,11.63
2023-05-13T07:00:21.313Z,10.90
2023-05-13T07:02:48.098Z,11.88
2023-05-13T07:05:14.738Z,12.07
2023-05-13T07:07:42.153Z,10.75
2023-05-13T07:10:09.094Z,9.45
2023-05-13T07:12:35.707Z,8.68
2023-05-13T07:15:02.416Z,10.85
2023-05-13T07:17:28.998Z,12.88
2023-05-13T07:19:56.672Z,9.90
2023-05-13T07:22:23.166Z,12.25
2023-05-13T07:24:49.678Z,11.88
2023-05-13T07:27:16.634Z,11.30
2023-05-13T07:29:43.142Z,7.93
2023-05-13T07:32:09.731Z,12.50
2023-05-13T07:34:36.528Z,9.70
2023-05-13T07:37:04.364Z,10.13
2023-05-13T07:39:31.117Z,10.57
2023-05-13T07:41:58.480Z,9.98
2023-05-13T07:44:25.015Z,9.85
2023-05-13T07:46:53.287Z,13.80
2023-05-13T07:49:21.275Z,11.73
2023-05-13T07:51:48.132Z,10.50
2023-05-13T07:54:14.654Z,16.63
2023-05-13T07:56:43.938Z,8.43
2023-05-13T07:59:10.481Z,9.05
2023-05-13T08:01:37.052Z,11.23
2023-05-13T08:04:03.676Z,10.13
2023-05-13T08:06:31.210Z,10.00
2023-05-13T08:08:57.722Z,8.95
2023-05-13T08:11:24.330Z,11.05
2023-05-13T08:13:51.144Z,12.20
2023-05-13T08:16:17.772Z,12.15
2023-05-13T08:18:44.359Z,11.73
2023-05-13T08:21:10.892Z,11.70
2023-05-13T08:23:45.454Z,8.15
2023-05-13T08:26:13.154Z,9.98
2023-05-13T08:28:39.752Z,15.80
2023-05-13T08:31:06.349Z,11.68
2023-05-13T08:33:33.074Z,11.52
2023-05-13T08:36:00.625Z,10.95
2023-05-13T08:38:27.173Z,8.77
2023-05-13T08:40:53.845Z,7.95
2023-05-13T08:43:23.520Z,8.65
2023-05-13T08:45:53.186Z,9.13
2023-05-13T08:48:20.468Z,10.68
2023-05-13T08:50:47.736Z,10.63
2023-05-13T08:53:18.171Z,9.55
2023-05-13T08:55:45.291Z,11.70
2023-05-13T08:58:12.285Z,13.82
2023-05-13T09:00:39.240Z,8.90
2023-05-13T09:03:06.836Z,9.35
2023-05-13T09:05:34.651Z,11.27
2023-05-13T09:08:12.253Z,9.02
2023-05-13T09:10:38.867Z,9.63
2023-05-13T09:13:05.972Z,10.88
2023-05-13T09:15:33.173Z,9.27
2023-05-13T09:18:04.295Z,11.88
2023-05-13T09:20:31.950Z,13.50
2023-05-13T09:23:03.287Z,10.18
2023-05-13T09:25:31.179Z,9.50
2023-05-13T09:28:02.752Z,8.82
2023-05-13T09:30:40.072Z,10.43
2023-05-13T09:33:19.570Z,7.25
2023-05-13T09:35:52.511Z,10.30
2023-05-13T09:38:21.038Z,12.15
2023-05-13T09:41:06.290Z,9.82
2023-05-13T09:43:33.932Z,8.23
2023-05-13T09:46:04.480Z,14.10
2023-05-13T09:48:34.674Z,9.23
2023-05-13T09:51:01.381Z,10.45
2023-05-13T09:53:28.898Z,9.40
2023-05-13T09:55:57.466Z,11.68
2023-05-13T09:58:25.360Z,13.85
2023-05-13T10:00:52.716Z,7.30
2023-05-13T10:03:19.516Z,10.45
2023-05-13T10:05:47.063Z,9.18
2023-05-13T10:08:17.321Z,11.40
2023-05-13T10:10:46.006Z,9.75
2023-05-13T10:13:15.862Z,10.60
2023-05-13T10:15:53.562Z,7.32
2023-05-13T10:18:22.239Z,12.15
2023-05-13T10:20:55.139Z,13.27
2023-05-13T10:23:24.029Z,12.70
2023-05-13T10:25:52.882Z,8.25
2023-05-13T10:28:20.452Z,8.38
2023-05-13T10:30:52.433Z,10.85
2023-05-13T10:33:19.497Z,11.82
2023-05-13T10:36:25.767Z,8.20
2023-05-13T10:39:07.895Z,12.45
2023-05-13T10:41:56.255Z,8.73
2023-05-13T10:44:23.736Z,7.70
2023-05-13T10:46:50.762Z,11.05
2023-05-13T10:49:17.363Z,7.72
2023-05-13T10:51:49.131Z,13.00
2023-05-13T10:54:23.344Z,6.53
2023-05-13T10:56:57.542Z,8.07
2023-05-13T10:59:24.124Z,11.75
2023-05-13T11:01:50.881Z,6.78
2023-05-13T11:04:20.398Z,5.88
2023-05-13T11:06:48.832Z,16.08
2023-05-13T11:09:31.923Z,6.32
2023-05-13T11:12:00.215Z,6.13
2023-05-13T11:14:30.196Z,6.68
2023-05-13T11:17:04.169Z,7.47
2023-05-13T11:19:37.147Z,6.80
2023-05-13T11:22:13.137Z,12.95
2023-05-13T11:24:40.453Z,7.18
2023-05-13T11:27:20.848Z,5.55
2023-05-13T11:29:55.459Z,10.55
2023-05-13T11:33:01.466Z,6.78
2023-05-13T11:35:30.285Z,13.63
2023-05-13T11:38:00.281Z,8.50
2023-05-13T11:40:31.714Z,12.43
2023-05-13T11:42:58.660Z,10.63
2023-05-13T11:45:25.873Z,6.57
2023-05-13T11:47:53.802Z,10.18
2023-05-13T11:50:22.101Z,5.90
2023-05-13T11:52:53.668Z,10.07
2023-05-13T11:55:36.474Z,8.63
2023-05-13T11:58:03.843Z,9.70
2023-05-13T12:00:34.743Z,7.30
2023-05-13T12:03:09.287Z,5.75
2023-05-13T12:05:36.036Z,11.13
2023-05-13T12:08:02.845Z,8.25
2023-05-13T12:10:29.395Z,5.30
2023-05-13T12:12:56.103Z,13.40
2023-05-13T12:15:23.421Z,5.28
2023-05-13T12:17:50.679Z,5.05
2023-05-13T12:20:19.054Z,7.57
2023-05-13T12:22:45.504Z,7.32
2023-05-13T12:25:39.911Z,8.23
2023-05-13T12:28:16.757Z,7.82
2023-05-13T12:31:05.690Z,7.07
2023-05-13T12:33:40.440Z,5.78
2023-05-13T12:36:24.287Z,5.22
2023-05-13T12:39:10.814Z,5.32
2023-05-13T12:41:41.691Z,7.80
2023-05-13T12:44:10.249Z,5.35
2023-05-13T12:46:37.502Z,9.50
2023-05-13T12:49:05.253Z,6.03
2023-05-13T12:51:35.564Z,13.60
2023-05-13T12:54:02.121Z,7.93
2023-05-13T12:56:28.925Z,6.78
2023-05-13T12:58:55.906Z,6.85
2023-05-13T13:01:23.007Z,8.15
2023-05-13T13:03:49.765Z,14.38
2023-05-13T13:06:16.625Z,6.60
2023-05-13T13:08:43.232Z,7.97
2023-05-13T13:11:10.335Z,12.07
2023-05-13T13:13:39.117Z,12.85
2023-05-13T13:16:06.515Z,5.60
2023-05-13T13:18:33.168Z,8.68
2023-05-13T13:20:59.780Z,5.32
2023-05-13T13:23:26.425Z,4.10
2023-05-13T13:25:52.975Z,3.67
2023-05-13T13:28:19.498Z,6.43
2023-05-13T13:30:46.964Z,3.03
2023-05-13T13:33:14.985Z,6.97
2023-05-13T13:35:43.699Z,6.72
2023-05-13T13:38:10.430Z,5.60
2023-05-13T13:40:37.129Z,7.22
2023-05-13T13:43:04.986Z,4.78
2023-05-13T13:45:31.578Z,4.75
2023-05-13T13:47:59.205Z,5.68
2023-05-13T13:50:26.247Z,5.75
2023-05-13T13:52:53.133Z,5.03
2023-05-13T13:55:20.858Z,5.40
2023-05-13T13:57:47.783Z,5.70
2023-05-13T14:00:15.760Z,5.72
2023-05-13T14:02:43.633Z,8.07
2023-05-13T14:05:11.723Z,6.00
2023-05-13T14:07:38.488Z,6.05
2023-05-13T14:10:06.246Z,6.00
2023-05-13T14:12:32.854Z,6.88
2023-05-13T14:14:59.860Z,6.38
2023-05-13T14:17:26.553Z,6.03
2023-05-13T14:19:55.027Z,6.00
2023-05-13T14:22:24.750Z,4.68
2023-05-13T14:24:52.491Z,5.60
2023-05-13T14:27:20.831Z,5.80
2023-05-13T14:29:48.463Z,6.65
2023-05-13T14:32:15.555Z,5.72
2023-05-13T14:34:42.501Z,5.38
2023-05-13T14:37:09.157Z,5.88
2023-05-13T14:39:35.825Z,5.07
2023-05-13T14:42:03.000Z,4.70
2023-05-13T14:44:29.529Z,3.88
2023-05-13T14:46:56.440Z,4.45
2023-05-13T14:49:23.126Z,6.85
2023-05-13T14:51:49.744Z,4.85
2023-05-13T14:54:17.469Z,4.80
2023-05-13T14:56:44.150Z,4.47
2023-05-13T14:59:11.240Z,4.13
2023-05-13T15:01:38.365Z,6.68
2023-05-13T15:04:05.317Z,6.70
2023-05-13T15:06:31.967Z,4.07
2023-05-13T15:08:58.579Z,4.80
2023-05-13T15:11:27.832Z,4.22
2023-05-13T15:13:54.353Z,3.90
2023-05-13T15:16:21.094Z,5.07
2023-05-13T15:18:47.761Z,5.80
2023-05-13T15:21:14.339Z,4.15
2023-05-13T15:23:41.199Z,6.45
2023-05-13T15:26:07.714Z,7.75
2023-05-13T15:28:34.196Z,5.40
2023-05-13T15:31:00.739Z,4.82
2023-05-13T15:33:27.403Z,7.25
2023-05-13T15:35:54.076Z,8.10
2023-05-13T15:38:20.718Z,5.00
2023-05-13T15:40:47.813Z,5.55
2023-05-13T15:43:14.323Z,4.13
2023-05-13T15:45:40.961Z,4.10
2023-05-13T15:48:07.745Z,5.38
2023-05-13T15:50:34.519Z,4.38
2023-05-13T15:53:01.029Z,11.23
2023-05-13T15:55:27.577Z,7.15
2023-05-13T15:57:54.214Z,6.00
2023-05-13T16:00:20.969Z,8.38
2023-05-13T16:02:47.747Z,3.95
2023-05-13T16:05:15.781Z,4.32
2023-05-13T16:07:42.574Z,6.50
2023-05-13T16:10:09.533Z,5.30
2023-05-13T16:12:36.607Z,4.70
2023-05-13T16:15:04.152Z,4.78
2023-05-13T16:17:31.725Z,4.75
2023-05-13T16:19:59.576Z,3.80
2023-05-13T16:22:33.359Z,5.35
2023-05-13T16:25:01.866Z,5.20
2023-05-13T16:27:29.340Z,7.63
2023-05-13T16:29:56.504Z,11.63
2023-05-13T16:32:23.449Z,8.17
2023-05-13T16:34:50.709Z,4.95
2023-05-13T16:37:17.268Z,5.23
2023-05-13T16:39:44.343Z,6.87
2023-05-13T16:42:10.907Z,7.87
2023-05-13T16:44:37.501Z,8.13
2023-05-13T16:47:05.486Z,7.33
2023-05-13T16:49:33.428Z,5.30
2023-05-13T16:52:00.011Z,8.87
2023-05-13T16:54:26.513Z,10.13
2023-05-13T16:56:53.059Z,9.47
2023-05-13T16:59:29.055Z,10.03
2023-05-13T17:01:55.826Z,6.87
2023-05-13T17:04:22.581Z,5.20
2023-05-13T17:06:49.228Z,7.50
2023-05-13T17:09:16.047Z,5.27
2023-05-13T17:11:42.589Z,6.60
2023-05-13T17:14:09.161Z,6.70
2023-05-13T17:16:35.936Z,6.13
2023-05-13T17:19:03.030Z,6.73
2023-05-13T17:21:29.784Z,12.37
2023-05-13T17:23:56.326Z,8.77
2023-05-13T17:26:23.066Z,8.33
2023-05-13T17:28:49.739Z,8.63
2023-05-13T17:31:16.758Z,6.30
2023-05-13T17:33:43.508Z,5.53
2023-05-13T17:36:10.720Z,6.00
2023-05-13T17:38:37.948Z,6.03
2023-05-13T17:41:04.749Z,6.20
2023-05-13T17:43:31.290Z,5.67
2023-05-13T17:45:57.955Z,6.50
2023-05-13T17:48:24.622Z,7.27
2023-05-13T17:50:51.528Z,6.53
2023-05-13T17:53:18.503Z,6.83
2023-05-13T17:55:45.139Z,9.23
2023-05-13T17:58:11.664Z,8.87
2023-05-13T18:00:38.190Z,7.03
2023-05-13T18:03:04.807Z,7.97
2023-05-13T18:05:31.344Z,7.50
2023-05-13T18:07:58.291Z,8.40
2023-05-13T18:10:27.136Z,8.47
2023-05-13T18:12:53.875Z,8.20
2023-05-13T18:15:20.666Z,7.87
2023-05-13T18:17:47.374Z,7.93
2023-05-13T18:20:14.017Z,9.57
2023-05-13T18:22:40.674Z,9.20
2023-05-13T18:25:08.076Z,8.00
2023-05-13T18:27:34.601Z,9.70
2023-05-13T18:30:01.166Z,9.93
2023-05-13T18:32:27.758Z,8.30
2023-05-13T18:34:54.338Z,8.77
2023-05-13T18:37:20.892Z,8.30
2023-05-13T18:39:48.465Z,8.40
2023-05-13T18:42:15.021Z,7.87
2023-05-13T18:44:41.591Z,9.53
2023-05-13T18:47:08.458Z,8.70
2023-05-13T18:49:35.780Z,8.17
2023-05-13T18:52:02.346Z,11.53
2023-05-13T18:54:29.155Z,8.03
2023-05-13T18:56:56.201Z,7.90
2023-05-13T18:59:22.905Z,8.20
2023-05-13T19:01:49.911Z,7.80
2023-05-13T19:04:17.183Z,8.40
2023-05-13T19:06:43.906Z,8.40
2023-05-13T19:09:10.446Z,8.30
2023-05-13T19:11:36.971Z,11.93
2023-05-13T19:14:03.503Z,8.43
2023-05-13T19:16:30.210Z,11.80
2023-05-13T19:18:56.806Z,8.30
2023-05-13T19:21:23.599Z,9.07
2023-05-13T19:23:50.524Z,9.80
2023-05-13T19:26:17.226Z,9.93
2023-05-13T19:28:45.715Z,9.43
2023-05-13T19:31:12.296Z,9.53
2023-05-13T19:33:39.165Z,10.03
2023-05-13T19:36:06.783Z,10.33
2023-05-13T19:38:34.743Z,11.57
2023-05-13T19:41:01.613Z,11.10
2023-05-13T19:43:28.414Z,11.70
2023-05-13T19:45:57.483Z,10.50
2023-05-13T19:48:24.011Z,11.73
2023-05-13T19:50:53.193Z,12.60
2023-05-13T19:53:21.508Z,12.40
2023-05-13T19:55:48.037Z,12.93
2023-05-13T19:58:15.210Z,12.73
2023-05-13T20:00:43.761Z,13.63
2023-05-13T20:03:10.785Z,16.73
2023-05-13T20:05:37.402Z,13.57
2023-05-13T20:08:04.264Z,13.87
2023-05-13T20:10:30.981Z,15.37
2023-05-13T20:12:57.548Z,15.93
2023-05-13T20:15:24.414Z,14.43
2023-05-13T20:17:51.032Z,15.10
2023-05-13T20:20:17.722Z,15.27
2023-05-13T20:22:44.233Z,16.43
2023-05-13T20:25:10.943Z,14.10
2023-05-13T20:27:37.479Z,15.33
2023-05-13T20:30:04.355Z,14.07
2023-05-13T20:32:31.050Z,14.20
2023-05-13T20:34:57.625Z,15.00
2023-05-13T20:37:24.381Z,18.07
2023-05-13T20:39:51.391Z,14.77
2023-05-13T20:42:18.028Z,15.20
2023-05-13T20:44:46.130Z,14.50
2023-05-13T20:47:13.452Z,16.93
2023-05-13T20:49:43.443Z,13.80
2023-05-13T20:52:10.904Z,32.63
2023-05-13T20:54:37.641Z,17.20
2023-05-13T20:57:04.489Z,18.20
2023-05-13T20:59:31.213Z,14.50
2023-05-13T21:01:58.329Z,15.93
2023-05-13T21:04:28.178Z,16.53
2023-05-13T21:06:54.754Z,15.50
2023-05-13T21:09:21.321Z,18.10
2023-05-13T21:11:47.842Z,18.17
2023-05-13T21:14:14.399Z,17.70
2023-05-13T21:16:40.967Z,20.03
2023-05-13T21:19:08.014Z,20.97
2023-05-13T21:21:34.605Z,20.23
2023-05-13T21:24:01.142Z,21.27
2023-05-13T21:26:27.727Z,21.33
2023-05-13T21:28:54.286Z,21.20
2023-05-13T21:31:20.933Z,21.53
2023-05-13T21:33:48.732Z,22.93
2023-05-13T21:36:15.403Z,29.53
2023-05-13T21:38:41.909Z,26.97
2023-05-13T21:41:08.495Z,26.03
2023-05-13T21:43:35.011Z,26.83
2023-05-13T21:46:03.029Z,26.63
2023-05-13T21:48:29.600Z,26.63
2023-05-13T21:50:56.152Z,34.10
2023-05-13T21:53:23.020Z,29.57
2023-05-13T21:55:50.141Z,31.20
2023-05-13T21:58:16.783Z,33.00
2023-05-13T22:00:43.392Z,31.20
2023-05-13T22:03:10.293Z,30.10
2023-05-13T22:05:43.405Z,32.07
2023-05-13T22:08:10.939Z,36.80
2023-05-13T22:10:37.954Z,35.43
2023-05-13T22:13:04.630Z,36.57
2023-05-13T22:15:31.501Z,34.10
2023-05-13T22:17:58.172Z,35.07
2023-05-13T22:20:25.425Z,34.90
2023-05-13T22:22:52.211Z,37.13
2023-05-13T22:25:19.151Z,34.83
2023-05-13T22:27:48.312Z,31.07
2023-05-13T22:30:15.106Z,37.23
2023-05-13T22:32:41.693Z,34.27
2023-05-13T22:35:08.975Z,29.07
2023-05-13T22:37:35.599Z,31.00
2023-05-13T22:40:02.157Z,28.90
2023-05-13T22:42:28.733Z,27.13
2023-05-13T22:44:55.320Z,29.93
2023-05-13T22:47:21.851Z,32.90
2023-05-13T22:49:48.392Z,31.53
2023-05-13T22:52:14.884Z,34.90
2023-05-13T22:54:41.873Z,32.73
2023-05-13T22:57:08.396Z,31.13
2023-05-13T22:59:35.395Z,35.63
2023-05-13T23:02:02.057Z,31.83
2023-05-13T23:04:28.920Z,30.33
2023-05-13T23:06:55.565Z,32.03
2023-05-13T23:09:22.137Z,34.07
2023-05-13T23:11:48.708Z,28.67
2023-05-13T23:14:15.246Z,31.30
2023-05-13T23:16:41.818Z,30.97
2023-05-13T23:19:08.467Z,30.13
2023-05-13T23:21:36.540Z,31.30
2023-05-13T23:24:03.746Z,29.53
2023-05-13T23:26:31.139Z,33.77
2023-05-13T23:28:57.693Z,37.60
2023-05-13T23:31:24.514Z,29.97
2023-05-13T23:33:51.128Z,33.87
2023-05-13T23:36:17.874Z,34.93
2023-05-13T23:38:44.417Z,33.83
2023-05-13T23:41:11.041Z,30.53
2023-05-13T23:43:37.559Z,34.53
2023-05-13T23:46:04.239Z,36.93
2023-05-13T23:48:31.955Z,37.60
2023-05-13T23:50:58.709Z,37.37
2023-05-13T23:53:25.448Z,37.77
2023-05-13T23:55:51.985Z,36.07
2023-05-13T23:58:18.592Z,40.10
